Time;durP1;ratioP1;P1;durP2;ratioP2;P2;SDS_P1;SDS_P2;PMS_P1;PMS_P2;Temp;Humidity;BMP_temperature;BMP_pressure;BME280_temperature;BME280_humidity;BME280_pressure;Samples;Min_cycle;Max_cycle;Signal;HPM_P1;HPM_P2
2021/09/21 00:01:40;;;;;;;3.67;2.10;;;12.00;68.50;;;;;;5076560;28;20109;-83
2021/09/21 00:04:07;;;;;;;2.85;2.20;;;12.00;68.60;;;;;;5075856;28;20499;-82
2021/09/21 00:06:33;;;;;;;4.13;1.88;;;12.00;68.70;;;;;;5075469;28;20033;-84
2021/09/21 00:08:59;;;;;;;3.10;2.20;;;12.00;68.70;;;;;;5075588;28;20016;-83
2021/09/21 00:11:24;;;;;;;3.17;2.10;;;12.00;68.70;;;;;;5075747;28;20043;-84
2021/09/21 00:13:50;;;;;;;2.55;2.00;;;11.90;68.60;;;;;;5076022;28;20451;-85
2021/09/21 00:16:16;;;;;;;2.80;2.30;;;11.90;68.70;;;;;;5076189;28;20472;-85
2021/09/21 00:18:42;;;;;;;4.68;2.40;;;11.90;69.10;;;;;;5075807;28;20032;-85
2021/09/21 00:21:08;;;;;;;2.67;2.30;;;11.90;68.80;;;;;;5073222;28;20033;-84
2021/09/21 00:23:34;;;;;;;3.55;2.40;;;11.90;68.90;;;;;;5076282;28;20078;-85
2021/09/21 00:26:00;;;;;;;3.58;2.60;;;11.80;68.90;;;;;;5075931;28;20131;-84
2021/09/21 00:28:25;;;;;;;4.45;2.67;;;11.80;69.00;;;;;;5075989;28;20028;-84
2021/09/21 00:30:52;;;;;;;5.05;2.90;;;11.80;69.20;;;;;;5076200;28;20016;-85
2021/09/21 00:40:02;;;;;;;5.05;2.78;;;11.70;69.60;;;;;;5076449;28;20020;-83
2021/09/21 00:42:29;;;;;;;4.38;2.60;;;11.60;69.60;;;;;;5075134;28;20400;-84
2021/09/21 00:55:01;;;;;;;3.97;2.70;;;11.60;69.80;;;;;;5074804;28;20027;-84
2021/09/21 00:57:28;;;;;;;3.60;2.65;;;11.60;69.80;;;;;;5074231;28;20028;-83
2021/09/21 00:59:54;;;;;;;4.55;2.90;;;11.60;70.00;;;;;;5074523;28;20537;-84
2021/09/21 01:02:20;;;;;;;3.42;2.92;;;11.60;70.10;;;;;;5074046;28;20021;-83
2021/09/21 01:04:45;;;;;;;5.50;3.22;;;11.50;70.10;;;;;;5074316;28;20067;-82
2021/09/21 01:07:11;;;;;;;5.22;2.85;;;11.50;70.30;;;;;;5074484;28;20020;-83
2021/09/21 01:09:36;;;;;;;4.88;3.03;;;11.50;70.40;;;;;;5074506;28;20137;-83
2021/09/21 01:12:02;;;;;;;5.60;3.20;;;11.50;70.50;;;;;;5074341;28;20467;-84
2021/09/21 01:14:28;;;;;;;4.78;3.55;;;11.40;70.50;;;;;;5075072;28;20044;-83
2021/09/21 01:16:55;;;;;;;4.97;3.33;;;11.40;70.60;;;;;;5075280;28;20028;-83
2021/09/21 01:19:21;;;;;;;4.43;3.05;;;11.40;70.70;;;;;;5073906;28;20025;-83
2021/09/21 01:21:48;;;;;;;6.40;3.75;;;11.40;70.80;;;;;;5073871;28;20027;-82
2021/09/21 01:24:15;;;;;;;4.40;3.10;;;11.40;70.80;;;;;;5074547;28;20063;-83
2021/09/21 01:26:41;;;;;;;4.03;3.20;;;11.40;70.90;;;;;;5074634;28;20085;-81
2021/09/21 01:29:07;;;;;;;4.78;3.20;;;11.40;71.00;;;;;;5074837;28;20044;-82
2021/09/21 01:31:34;;;;;;;5.07;3.33;;;11.40;71.10;;;;;;5073702;28;20040;-82
2021/09/21 01:34:00;;;;;;;4.80;3.13;;;11.40;71.10;;;;;;5074054;28;20472;-83
2021/09/21 01:36:28;;;;;;;4.22;3.28;;;11.30;71.10;;;;;;5073611;28;20021;-82
2021/09/21 01:38:54;;;;;;;4.40;3.45;;;11.40;71.20;;;;;;5073557;28;20028;-82
2021/09/21 01:41:20;;;;;;;4.30;3.33;;;11.40;71.30;;;;;;5073799;28;20028;-82
2021/09/21 01:43:46;;;;;;;4.40;3.30;;;11.30;71.20;;;;;;5073673;28;20111;-82
2021/09/21 01:46:22;;;;;;;5.40;3.05;;;11.40;71.90;;;;;;5073646;28;20025;-82
2021/09/21 01:48:48;;;;;;;4.28;3.17;;;11.30;71.30;;;;;;5073434;28;20082;-82
2021/09/21 01:51:40;;;;;;;5.07;2.92;;;11.30;71.30;;;;;;5074794;28;20020;-82
2021/09/21 01:54:17;;;;;;;4.95;3.10;;;11.30;71.40;;;;;;5073509;28;20521;-82
2021/09/21 01:59:28;;;;;;;3.22;2.78;;;11.30;71.50;;;;;;5075206;28;20055;-82
2021/09/21 02:01:53;;;;;;;4.00;2.60;;;11.30;71.90;;;;;;5074928;28;20036;-82
2021/09/21 02:04:20;;;;;;;3.10;2.80;;;11.30;71.60;;;;;;5074164;28;20078;-82
2021/09/21 02:06:46;;;;;;;6.20;2.83;;;11.30;71.70;;;;;;5075017;28;20104;-82
2021/09/21 02:09:13;;;;;;;5.03;3.10;;;11.30;71.70;;;;;;5075290;28;20052;-82
2021/09/21 02:11:42;;;;;;;4.00;2.75;;;11.30;71.70;;;;;;5076439;28;20020;-81
2021/09/21 02:14:11;;;;;;;3.58;2.80;;;11.30;71.80;;;;;;5082406;28;20127;-81
2021/09/21 02:16:37;;;;;;;3.17;2.67;;;11.30;71.80;;;;;;5088338;28;20053;-81
2021/09/21 02:19:03;;;;;;;4.72;2.67;;;11.30;71.80;;;;;;5087896;28;20024;-81
2021/09/21 02:21:29;;;;;;;5.45;2.90;;;11.30;71.90;;;;;;5085794;28;20091;-81
2021/09/21 02:23:57;;;;;;;4.57;2.90;;;11.30;71.90;;;;;;5087854;28;20040;-80
2021/09/21 02:26:23;;;;;;;3.58;2.50;;;11.30;72.00;;;;;;5086315;28;20025;-81
2021/09/21 02:28:50;;;;;;;3.60;2.80;;;11.20;72.00;;;;;;5084489;28;20017;-81
2021/09/21 02:31:16;;;;;;;3.92;2.95;;;11.30;72.10;;;;;;5086686;28;20027;-80
2021/09/21 02:33:42;;;;;;;4.20;3.13;;;11.30;72.10;;;;;;5085142;28;20016;-82
2021/09/21 02:36:08;;;;;;;4.35;3.15;;;11.20;72.10;;;;;;5076715;28;20461;-83
2021/09/21 02:38:36;;;;;;;4.30;3.05;;;11.20;72.20;;;;;;5075498;28;20073;-82
2021/09/21 02:41:03;;;;;;;3.53;2.88;;;11.30;72.40;;;;;;5071921;28;20051;-81
2021/09/21 02:43:28;;;;;;;5.03;2.97;;;11.20;72.30;;;;;;5075782;28;20087;-82
2021/09/21 02:45:56;;;;;;;4.63;3.22;;;11.20;72.40;;;;;;5082921;28;20020;-82
2021/09/21 02:48:21;;;;;;;4.20;2.60;;;11.20;72.50;;;;;;5082026;28;20020;-83
2021/09/21 02:50:47;;;;;;;2.92;2.58;;;11.20;72.50;;;;;;5078538;28;20027;-83
2021/09/21 02:53:12;;;;;;;5.80;2.88;;;11.20;72.60;;;;;;5073728;28;20128;-83
2021/09/21 02:55:38;;;;;;;4.32;2.88;;;11.20;72.60;;;;;;5073362;28;20027;-82
2021/09/21 03:01:25;;;;;;;3.55;2.40;;;11.20;72.90;;;;;;5074381;28;20095;-82
2021/09/21 03:03:54;;;;;;;5.28;2.80;;;11.10;72.80;;;;;;5072909;28;20033;-83
2021/09/21 03:06:28;;;;;;;3.53;2.58;;;11.10;72.90;;;;;;5072589;28;20548;-83
2021/09/21 03:09:01;;;;;;;3.42;2.60;;;11.10;73.00;;;;;;5072847;28;20016;-83
2021/09/21 03:11:28;;;;;;;4.13;2.75;;;11.10;73.10;;;;;;5072512;28;20502;-81
2021/09/21 03:19:24;;;;;;;4.75;2.40;;;11.10;73.40;;;;;;5077231;28;20114;-81
2021/09/21 03:21:50;;;;;;;3.17;2.60;;;11.00;73.40;;;;;;5075853;28;20092;-82
2021/09/21 03:24:16;;;;;;;3.72;2.60;;;11.00;73.50;;;;;;5075030;28;20040;-81
2021/09/21 03:26:42;;;;;;;3.70;2.80;;;11.00;73.60;;;;;;5076571;28;20033;-81
2021/09/21 03:29:07;;;;;;;3.40;2.70;;;11.00;73.60;;;;;;5075441;28;20056;-81
2021/09/21 03:31:36;;;;;;;4.28;2.90;;;11.00;73.70;;;;;;5075265;28;20040;-81
2021/09/21 03:34:02;;;;;;;5.82;2.55;;;11.00;73.80;;;;;;5075250;28;20063;-81
2021/09/21 03:36:28;;;;;;;4.07;2.70;;;11.00;73.90;;;;;;5075088;28;20048;-82
2021/09/21 03:38:53;;;;;;;3.95;2.65;;;11.00;73.90;;;;;;5076387;28;20107;-83
2021/09/21 03:41:19;;;;;;;4.32;2.53;;;11.00;73.90;;;;;;5075021;28;20020;-82
2021/09/21 03:43:45;;;;;;;4.82;2.63;;;11.00;73.90;;;;;;5075031;28;20105;-84
2021/09/21 03:46:11;;;;;;;4.57;2.85;;;11.00;73.90;;;;;;5075190;28;20020;-83
2021/09/21 03:48:36;;;;;;;3.17;2.70;;;10.90;73.80;;;;;;5075336;28;20395;-82
2021/09/21 03:51:02;;;;;;;2.85;2.55;;;10.90;74.00;;;;;;5075333;28;20020;-83
2021/09/21 03:53:28;;;;;;;3.95;2.80;;;10.90;74.10;;;;;;5074965;28;20023;-82
2021/09/21 03:55:53;;;;;;;3.88;2.55;;;10.90;74.10;;;;;;5075075;28;20534;-83
2021/09/21 03:58:19;;;;;;;3.60;2.95;;;10.90;74.10;;;;;;5075074;28;20016;-82
2021/09/21 04:00:44;;;;;;;5.53;2.88;;;11.00;74.20;;;;;;5076239;28;20020;-83
2021/09/21 04:03:10;;;;;;;5.28;3.50;;;10.90;74.10;;;;;;5076505;28;20480;-82
2021/09/21 04:05:36;;;;;;;4.28;3.33;;;10.90;74.10;;;;;;5074985;28;20786;-82
2021/09/21 04:08:01;;;;;;;5.82;3.65;;;10.90;74.10;;;;;;5074708;28;20020;-83
2021/09/21 04:10:27;;;;;;;5.03;3.50;;;10.90;74.20;;;;;;5074646;28;20021;-82
2021/09/21 04:12:53;;;;;;;3.63;3.13;;;10.90;74.30;;;;;;5074667;28;20063;-82
2021/09/21 04:15:18;;;;;;;5.25;3.38;;;10.90;74.40;;;;;;5075777;28;20081;-82
2021/09/21 04:21:06;;;;;;;5.82;3.72;;;10.90;74.50;;;;;;5076086;28;20040;-82
2021/09/21 04:23:32;;;;;;;5.20;3.85;;;10.90;74.50;;;;;;5075843;28;20020;-82
2021/09/21 04:25:58;;;;;;;5.50;3.45;;;10.80;74.50;;;;;;5074031;28;20044;-82
2021/09/21 04:28:24;;;;;;;6.13;3.78;;;10.80;74.70;;;;;;5073764;28;20016;-83
2021/09/21 04:30:51;;;;;;;5.43;3.60;;;10.80;74.80;;;;;;5073910;28;20017;-82
2021/09/21 04:33:17;;;;;;;5.15;3.70;;;10.90;74.90;;;;;;5074042;28;20397;-83
2021/09/21 04:35:43;;;;;;;4.55;3.53;;;10.90;74.80;;;;;;5075478;28;20025;-82
2021/09/21 04:38:10;;;;;;;5.07;3.85;;;10.90;74.90;;;;;;5074245;28;20021;-82
2021/09/21 04:40:36;;;;;;;7.28;4.00;;;10.90;74.90;;;;;;5074335;28;20480;-82
2021/09/21 04:43:02;;;;;;;4.60;3.95;;;11.00;75.00;;;;;;5075446;28;20012;-83
2021/09/21 04:45:28;;;;;;;6.82;4.00;;;11.00;74.90;;;;;;5071522;28;20028;-83
2021/09/21 04:47:54;;;;;;;6.45;3.90;;;11.10;74.90;;;;;;5073916;28;20021;-82
2021/09/21 04:50:19;;;;;;;6.43;4.03;;;11.10;74.80;;;;;;5074953;28;20044;-82
2021/09/21 04:52:45;;;;;;;6.47;3.53;;;11.20;74.90;;;;;;5074010;28;20051;-82
2021/09/21 04:55:11;;;;;;;3.92;3.40;;;11.20;74.90;;;;;;5074964;28;20381;-83
2021/09/21 04:57:36;;;;;;;8.10;4.07;;;11.20;74.90;;;;;;5075059;28;20097;-82
2021/09/21 05:00:04;;;;;;;5.18;3.80;;;11.30;74.90;;;;;;5073880;28;20032;-82
2021/09/21 05:02:30;;;;;;;5.15;3.70;;;11.30;74.90;;;;;;5073672;28;20028;-82
2021/09/21 05:04:55;;;;;;;6.88;4.10;;;11.40;75.00;;;;;;5074144;28;20031;-82
2021/09/21 05:07:21;;;;;;;5.53;4.18;;;11.40;75.00;;;;;;5073723;28;20021;-82
2021/09/21 05:09:47;;;;;;;6.18;4.07;;;11.50;75.00;;;;;;5073370;28;20021;-82
2021/09/21 05:12:12;;;;;;;5.07;3.92;;;11.50;74.90;;;;;;5075245;28;20365;-83
2021/09/21 05:14:38;;;;;;;5.45;3.97;;;11.50;74.80;;;;;;5074825;28;20031;-82
2021/09/21 05:17:06;;;;;;;5.25;4.22;;;11.60;74.80;;;;;;5073295;28;20020;-82
2021/09/21 05:19:31;;;;;;;9.32;4.40;;;11.60;74.70;;;;;;5074541;28;20016;-81
2021/09/21 05:21:57;;;;;;;5.78;4.03;;;11.60;74.70;;;;;;5073209;28;20506;-81
2021/09/21 05:24:22;;;;;;;5.60;4.30;;;11.60;74.70;;;;;;5072933;28;20054;-81
2021/09/21 05:26:48;;;;;;;6.63;4.22;;;11.70;74.70;;;;;;5073319;28;20074;-81
2021/09/21 05:29:13;;;;;;;5.35;3.90;;;11.70;74.70;;;;;;5074075;28;20031;-81
2021/09/21 05:31:39;;;;;;;4.97;3.88;;;11.70;74.60;;;;;;5074033;28;20028;-81
2021/09/21 05:34:05;;;;;;;6.22;4.07;;;11.70;74.70;;;;;;5072786;28;20074;-81
2021/09/21 05:36:31;;;;;;;5.05;3.97;;;11.80;74.70;;;;;;5072838;28;20036;-82
2021/09/21 05:38:57;;;;;;;4.93;3.90;;;11.80;74.70;;;;;;5074003;28;20472;-81
2021/09/21 05:41:23;;;;;;;6.32;4.13;;;11.90;74.60;;;;;;5073926;28;20112;-81
2021/09/21 05:47:42;;;;;;;5.80;4.30;;;12.00;74.70;;;;;;5074019;28;20086;-82
2021/09/21 05:50:09;;;;;;;6.60;4.10;;;12.00;74.50;;;;;;5072835;28;20020;-82
2021/09/21 05:52:35;;;;;;;6.53;4.18;;;12.00;74.60;;;;;;5074133;28;20033;-83
2021/09/21 05:55:01;;;;;;;5.85;4.20;;;12.00;75.20;;;;;;5074179;28;20046;-82
2021/09/21 05:57:26;;;;;;;7.05;3.97;;;12.10;74.70;;;;;;5072774;28;20103;-81
2021/09/21 05:59:52;;;;;;;7.43;4.20;;;12.10;74.70;;;;;;5072725;28;20106;-82
2021/09/21 06:02:17;;;;;;;5.55;3.67;;;12.20;74.70;;;;;;5073033;28;20091;-81
2021/09/21 06:04:43;;;;;;;4.50;3.67;;;12.20;74.70;;;;;;5072458;28;20115;-81
2021/09/21 06:07:09;;;;;;;5.85;3.90;;;12.20;74.80;;;;;;5073469;28;20082;-81
2021/09/21 06:09:34;;;;;;;4.38;3.58;;;12.30;74.90;;;;;;5073674;28;20032;-82
2021/09/21 06:12:00;;;;;;;5.20;4.10;;;12.30;74.90;;;;;;5072404;28;20025;-82
2021/09/21 06:14:25;;;;;;;5.00;4.10;;;12.30;74.90;;;;;;5072398;28;20107;-82
2021/09/21 06:16:52;;;;;;;5.28;3.92;;;12.30;74.80;;;;;;5072271;28;20029;-81
2021/09/21 06:19:17;;;;;;;5.07;4.10;;;12.40;74.90;;;;;;5072492;28;20052;-82
2021/09/21 06:21:43;;;;;;;6.55;4.00;;;12.40;74.80;;;;;;5072358;28;20492;-81
2021/09/21 06:24:09;;;;;;;7.30;3.95;;;12.50;74.70;;;;;;5072293;28;20021;-81
2021/09/21 06:26:36;;;;;;;6.55;4.18;;;12.50;74.70;;;;;;5072319;28;20056;-82
2021/09/21 06:29:01;;;;;;;5.30;3.63;;;12.60;74.70;;;;;;5072233;28;20032;-81
2021/09/21 06:31:27;;;;;;;5.20;3.85;;;12.70;74.60;;;;;;5073343;28;20021;-81
2021/09/21 06:33:53;;;;;;;5.82;3.88;;;12.70;74.50;;;;;;5072162;28;20463;-82
2021/09/21 06:39:41;;;;;;;5.05;3.78;;;12.80;74.40;;;;;;5074120;28;20125;-82
2021/09/21 06:42:08;;;;;;;9.57;3.83;;;12.90;74.30;;;;;;5072181;28;20391;-83
2021/09/21 06:44:34;;;;;;;5.45;4.13;;;12.90;74.20;;;;;;5073345;28;20109;-82
2021/09/21 06:47:00;;;;;;;7.72;3.88;;;13.00;74.10;;;;;;5072253;28;20472;-82
2021/09/21 06:49:25;;;;;;;8.10;4.53;;;13.10;74.10;;;;;;5072395;28;20021;-82
2021/09/21 06:51:51;;;;;;;8.63;4.30;;;13.10;74.10;;;;;;5072148;28;20032;-82
2021/09/21 06:54:17;;;;;;;8.07;4.65;;;13.20;74.00;;;;;;5069480;28;20028;-82
2021/09/21 06:56:42;;;;;;;6.75;4.32;;;13.20;74.00;;;;;;5072143;28;20032;-82
2021/09/21 06:59:08;;;;;;;7.50;4.38;;;13.30;73.90;;;;;;5073754;28;20025;-82
2021/09/21 07:01:34;;;;;;;8.18;4.15;;;13.30;73.80;;;;;;5072318;28;20035;-82
2021/09/21 07:03:59;;;;;;;7.47;4.65;;;13.30;73.70;;;;;;5072756;28;20027;-82
2021/09/21 07:06:25;;;;;;;7.13;4.00;;;13.40;73.60;;;;;;5073470;28;20032;-82
2021/09/21 07:08:50;;;;;;;5.35;4.00;;;13.40;73.50;;;;;;5073697;28;20024;-82
2021/09/21 07:11:18;;;;;;;5.95;4.22;;;13.40;73.40;;;;;;5072308;28;20029;-82
2021/09/21 07:13:44;;;;;;;5.85;4.18;;;13.50;73.40;;;;;;5072607;28;20086;-82
2021/09/21 07:16:10;;;;;;;6.50;4.55;;;13.50;73.20;;;;;;5072516;28;20016;-82
2021/09/21 07:18:35;;;;;;;8.38;4.88;;;13.60;73.10;;;;;;5072602;28;20020;-82
2021/09/21 07:21:01;;;;;;;6.85;4.80;;;13.70;73.00;;;;;;5072733;28;20552;-82
2021/09/21 07:23:27;;;;;;;7.03;4.40;;;13.80;73.00;;;;;;5073888;28;20020;-81
2021/09/21 07:25:52;;;;;;;6.80;4.68;;;13.80;72.90;;;;;;5073212;28;20036;-82
2021/09/21 07:28:18;;;;;;;10.00;4.35;;;13.90;72.80;;;;;;5072286;28;20498;-82
2021/09/21 07:30:44;;;;;;;12.45;5.10;;;14.00;72.70;;;;;;5071963;28;20028;-82
2021/09/21 07:33:13;;;;;;;8.10;4.45;;;14.10;72.70;;;;;;5073269;28;20032;-82
2021/09/21 07:35:40;;;;;;;8.88;4.68;;;14.20;72.70;;;;;;5071798;28;20052;-82
2021/09/21 07:38:05;;;;;;;9.70;5.00;;;14.20;72.60;;;;;;5073210;28;20025;-82
2021/09/21 07:40:35;;;;;;;7.20;4.70;;;14.20;72.70;;;;;;5073377;28;20143;-82
2021/09/21 07:43:01;;;;;;;8.02;4.95;;;14.20;72.70;;;;;;5071750;28;20028;-82
2021/09/21 07:45:26;;;;;;;6.78;5.07;;;14.20;72.70;;;;;;5071437;28;20012;-82
2021/09/21 07:47:52;;;;;;;5.80;4.50;;;14.20;72.80;;;;;;5071459;28;20039;-82
2021/09/21 07:50:18;;;;;;;6.57;4.38;;;14.20;72.80;;;;;;5071460;28;20024;-82
2021/09/21 07:52:43;;;;;;;5.80;4.53;;;14.30;72.90;;;;;;5071980;28;20024;-82
2021/09/21 07:55:10;;;;;;;8.68;4.55;;;14.30;72.80;;;;;;5073598;28;20035;-82
2021/09/21 07:57:38;;;;;;;6.60;4.32;;;14.30;72.80;;;;;;5071895;28;20038;-83
2021/09/21 08:00:06;;;;;;;7.00;3.78;;;14.40;72.70;;;;;;5071823;28;20021;-82
2021/09/21 08:02:31;;;;;;;5.30;3.70;;;14.50;72.60;;;;;;5072877;28;20013;-82
2021/09/21 08:04:57;;;;;;;5.68;3.50;;;14.50;72.30;;;;;;5076574;28;20169;-83
2021/09/21 08:07:29;;;;;;;5.50;3.67;;;14.60;72.20;;;;;;5075487;28;20119;-82
2021/09/21 08:09:55;;;;;;;5.88;3.60;;;14.60;71.90;;;;;;5075162;28;20095;-82
2021/09/21 08:12:21;;;;;;;5.53;3.78;;;14.70;71.90;;;;;;5076841;28;20029;-83
2021/09/21 08:14:49;;;;;;;5.22;3.35;;;14.70;71.80;;;;;;5077010;28;20017;-81
2021/09/21 08:17:16;;;;;;;3.55;2.83;;;14.80;71.60;;;;;;5075832;28;20021;-82
2021/09/21 08:19:42;;;;;;;4.05;3.00;;;14.90;71.40;;;;;;5076967;28;20024;-83
2021/09/21 08:22:08;;;;;;;4.63;2.88;;;14.90;71.10;;;;;;5076592;28;20020;-82
2021/09/21 08:24:37;;;;;;;3.08;2.38;;;15.00;70.80;;;;;;5074249;28;20357;-78
2021/09/21 08:27:02;;;;;;;4.63;2.20;;;15.10;70.40;;;;;;5075197;28;20115;-78
2021/09/21 08:29:28;;;;;;;3.67;2.20;;;15.20;69.90;;;;;;5073846;28;20102;-78
2021/09/21 08:31:54;;;;;;;2.70;2.17;;;15.30;69.50;;;;;;5073782;28;20547;-79
2021/09/21 08:34:19;;;;;;;3.28;2.35;;;15.30;69.10;;;;;;5074213;28;20021;-79
2021/09/21 08:36:45;;;;;;;4.40;2.28;;;15.40;68.80;;;;;;5074009;28;20017;-80
2021/09/21 08:39:11;;;;;;;4.55;2.40;;;15.40;68.50;;;;;;5074206;28;20060;-78
2021/09/21 08:41:36;;;;;;;2.78;1.90;;;15.50;68.30;;;;;;5074040;28;20020;-80
2021/09/21 08:44:03;;;;;;;3.20;2.03;;;15.50;67.90;;;;;;5074002;28;20054;-80
2021/09/21 08:46:29;;;;;;;2.58;2.20;;;15.60;67.70;;;;;;5073752;28;20461;-78
2021/09/21 08:48:55;;;;;;;2.72;1.88;;;15.70;67.40;;;;;;5073610;28;20099;-78
2021/09/21 08:51:21;;;;;;;2.40;2.13;;;15.70;67.20;;;;;;5073589;28;20023;-77
2021/09/21 08:53:47;;;;;;;2.15;1.60;;;15.80;66.90;;;;;;5073519;28;20021;-78
2021/09/21 08:56:14;;;;;;;2.08;1.90;;;15.90;66.40;;;;;;5073586;28;20484;-78
2021/09/21 08:58:39;;;;;;;2.10;1.90;;;15.90;65.80;;;;;;5075189;28;20048;-78
2021/09/21 09:01:15;;;;;;;3.42;2.15;;;16.00;65.50;;;;;;5073566;28;20043;-78
2021/09/21 09:03:55;;;;;;;1.67;1.50;;;16.10;65.00;;;;;;5073392;28;20392;-77
2021/09/21 09:06:21;;;;;;;2.65;1.42;;;16.10;64.30;;;;;;5074536;28;20074;-77
2021/09/21 09:08:47;;;;;;;3.13;1.40;;;16.10;64.30;;;;;;5073188;28;20030;-78
2021/09/21 09:11:18;;;;;;;1.75;1.35;;;16.20;63.90;;;;;;5073182;28;20119;-80
2021/09/21 09:13:48;;;;;;;2.95;1.70;;;16.20;63.90;;;;;;5073102;28;20024;-79
2021/09/21 09:16:16;;;;;;;1.75;1.50;;;16.30;62.90;;;;;;5072498;28;20077;-78
2021/09/21 09:18:47;;;;;;;3.72;1.98;;;16.30;62.80;;;;;;5073078;28;20024;-79
2021/09/21 09:21:19;;;;;;;2.15;1.83;;;16.30;62.80;;;;;;5073056;28;20021;-79
2021/09/21 09:23:49;;;;;;;2.10;1.90;;;16.40;62.80;;;;;;5072937;28;20021;-79
2021/09/21 09:26:23;;;;;;;2.90;1.85;;;16.30;62.40;;;;;;5072715;28;20123;-78
2021/09/21 09:28:52;;;;;;;3.63;1.90;;;16.40;62.60;;;;;;5074108;28;20040;-78
2021/09/21 09:31:27;;;;;;;2.05;1.63;;;16.40;62.60;;;;;;5073446;28;20128;-78
2021/09/21 09:34:09;;;;;;;3.50;1.80;;;16.40;62.40;;;;;;5072725;28;20017;-78
2021/09/21 09:36:51;;;;;;;2.42;1.67;;;16.50;62.30;;;;;;5072764;28;20029;-78
2021/09/21 09:39:20;;;;;;;3.13;1.80;;;16.60;62.20;;;;;;5072601;28;20602;-78
2021/09/21 09:41:46;;;;;;;2.22;1.58;;;16.70;62.20;;;;;;5072679;28;20158;-78
2021/09/21 09:44:15;;;;;;;2.92;1.80;;;16.80;61.90;;;;;;5073763;28;20032;-77
2021/09/21 09:46:51;;;;;;;4.40;1.70;;;16.80;61.70;;;;;;5073895;28;20021;-77
2021/09/21 09:49:26;;;;;;;2.90;1.40;;;16.90;61.40;;;;;;5072552;28;20020;-78
2021/09/21 09:51:54;;;;;;;2.33;1.40;;;16.90;61.00;;;;;;5072446;28;20051;-79
2021/09/21 09:54:21;;;;;;;2.20;1.60;;;16.90;60.80;;;;;;5072560;28;20031;-79
2021/09/21 09:56:47;;;;;;;2.35;1.50;;;16.90;60.50;;;;;;5072601;28;20396;-80
2021/09/21 09:59:15;;;;;;;4.00;1.90;;;16.90;60.50;;;;;;5072121;28;20024;-79
2021/09/21 10:01:44;;;;;;;1.63;1.48;;;17.00;60.50;;;;;;5072394;28;20024;-79
2021/09/21 10:04:13;;;;;;;1.83;1.48;;;17.00;60.40;;;;;;5072224;28;20543;-79
2021/09/21 10:06:40;;;;;;;2.35;1.50;;;17.00;60.00;;;;;;5071890;28;20028;-80
2021/09/21 10:09:06;;;;;;;1.80;1.30;;;17.10;59.90;;;;;;5072402;28;20472;-77
2021/09/21 10:11:32;;;;;;;2.33;1.60;;;17.10;59.60;;;;;;5074005;28;20074;-77
2021/09/21 10:14:03;;;;;;;1.58;1.20;;;17.10;59.40;;;;;;5073191;28;20024;-77
2021/09/21 10:16:30;;;;;;;1.85;1.75;;;17.20;59.30;;;;;;5071872;28;20021;-77
2021/09/21 10:18:57;;;;;;;1.60;1.50;;;17.20;59.10;;;;;;5073007;28;20111;-78
2021/09/21 10:21:35;;;;;;;1.70;1.60;;;17.30;59.20;;;;;;5071640;28;20029;-78
2021/09/21 10:24:04;;;;;;;1.73;1.30;;;17.30;58.70;;;;;;5072855;28;20040;-77
2021/09/21 10:26:31;;;;;;;1.35;1.25;;;17.30;58.50;;;;;;5072227;28;20089;-77
2021/09/21 10:28:58;;;;;;;1.45;1.30;;;17.30;58.30;;;;;;5075761;28;20028;-75
2021/09/21 10:31:24;;;;;;;1.50;1.40;;;17.30;58.00;;;;;;5071537;28;20086;-76
2021/09/21 10:37:13;;;;;;;2.38;1.30;;;17.40;57.30;;;;;;5073001;28;20067;-79
2021/09/21 10:39:39;;;;;;;2.00;1.40;;;17.40;57.30;;;;;;5072822;28;20453;-78
2021/09/21 10:42:09;;;;;;;2.00;1.38;;;17.40;57.20;;;;;;5073013;28;20052;-78
2021/09/21 10:44:35;;;;;;;1.52;1.15;;;17.40;56.90;;;;;;5071467;28;20021;-77
2021/09/21 10:47:06;;;;;;;1.88;1.63;;;17.50;57.00;;;;;;5071442;28;20040;-77
2021/09/21 10:49:41;;;;;;;1.80;1.60;;;17.50;56.30;;;;;;5071488;28;20119;-77
2021/09/21 10:52:15;;;;;;;1.75;1.50;;;17.60;56.30;;;;;;5071478;28;20496;-76
2021/09/21 10:54:59;;;;;;;2.53;1.70;;;17.60;56.30;;;;;;5072691;28;20085;-77
2021/09/21 10:57:40;;;;;;;1.50;1.40;;;17.60;56.20;;;;;;5071399;28;20388;-77
2021/09/21 11:00:06;;;;;;;2.47;1.42;;;17.60;56.10;;;;;;5071346;28;20025;-77
2021/09/21 11:02:39;;;;;;;2.00;1.45;;;17.70;56.00;;;;;;5071357;28;20071;-76
2021/09/21 11:05:08;;;;;;;1.90;1.65;;;17.80;55.80;;;;;;5072457;28;20028;-77
2021/09/21 11:07:37;;;;;;;2.17;1.80;;;17.80;55.70;;;;;;5072545;28;20036;-77
2021/09/21 11:10:04;;;;;;;3.45;2.10;;;17.80;55.30;;;;;;5071263;28;20108;-76
2021/09/21 11:12:29;;;;;;;2.85;1.75;;;17.80;54.80;;;;;;5072414;28;20021;-77
2021/09/21 11:14:58;;;;;;;2.80;1.90;;;17.90;55.00;;;;;;5071169;28;20034;-76
2021/09/21 11:17:27;;;;;;;2.30;1.80;;;17.90;54.80;;;;;;5071097;28;20561;-76
2021/09/21 11:19:55;;;;;;;2.15;1.90;;;17.90;54.80;;;;;;5071076;28;20028;-76
2021/09/21 11:22:29;;;;;;;2.35;1.85;;;18.00;54.90;;;;;;5071004;28;20029;-76
2021/09/21 11:25:07;;;;;;;1.90;1.60;;;18.10;55.30;;;;;;5072264;28;20044;-76
2021/09/21 11:27:34;;;;;;;1.88;1.67;;;18.10;54.80;;;;;;5071027;28;20033;-76
2021/09/21 11:30:13;;;;;;;4.30;2.10;;;18.20;54.80;;;;;;5071730;28;20515;-78
2021/09/21 11:32:44;;;;;;;2.25;1.90;;;18.30;54.60;;;;;;5071589;28;20440;-78
2021/09/21 11:35:15;;;;;;;2.65;2.00;;;18.30;54.50;;;;;;5071485;28;20036;-78
2021/09/21 11:37:50;;;;;;;2.75;1.90;;;18.40;54.60;;;;;;5071642;28;20458;-78
2021/09/21 11:40:28;;;;;;;3.35;1.70;;;18.50;54.50;;;;;;5075692;28;20032;-78
2021/09/21 11:42:55;;;;;;;3.08;1.90;;;18.60;54.10;;;;;;5075420;28;20027;-78
2021/09/21 11:45:22;;;;;;;1.73;1.58;;;18.60;54.00;;;;;;5075074;28;20036;-78
2021/09/21 11:47:49;;;;;;;2.60;1.90;;;18.70;53.90;;;;;;5074799;28;20131;-78
2021/09/21 11:50:23;;;;;;;6.57;1.92;;;18.70;53.70;;;;;;5074865;28;20086;-78
2021/09/21 11:52:50;;;;;;;2.72;1.85;;;18.80;53.00;;;;;;5074914;28;20485;-78
2021/09/21 11:55:19;;;;;;;1.92;1.70;;;18.70;52.60;;;;;;5074438;28;20028;-77
2021/09/21 11:57:47;;;;;;;2.03;1.80;;;18.70;52.60;;;;;;5075833;28;20035;-77
2021/09/21 12:00:34;;;;;;;3.35;1.98;;;18.80;52.90;;;;;;5075777;28;20484;-79
2021/09/21 12:03:06;;;;;;;1.92;1.67;;;18.80;52.50;;;;;;5075510;28;20028;-78
2021/09/21 12:05:34;;;;;;;2.65;1.80;;;19.00;52.90;;;;;;5075623;28;20032;-78
2021/09/21 12:08:03;;;;;;;2.55;1.90;;;19.10;52.90;;;;;;5075623;28;20052;-77
2021/09/21 12:10:29;;;;;;;2.42;1.85;;;19.10;52.70;;;;;;5074278;28;20507;-78
2021/09/21 12:13:12;;;;;;;2.88;1.90;;;19.20;52.70;;;;;;5074118;28;20555;-77
2021/09/21 12:15:41;;;;;;;2.28;1.80;;;19.30;52.60;;;;;;5074091;28;20490;-78
2021/09/21 12:18:10;;;;;;;4.82;1.75;;;19.40;52.70;;;;;;5074153;28;20037;-78
2021/09/21 12:20:36;;;;;;;2.40;1.70;;;19.40;52.10;;;;;;5075365;28;20048;-77
2021/09/21 12:23:04;;;;;;;4.45;1.98;;;19.50;51.80;;;;;;5074131;28;20025;-77
2021/09/21 12:25:34;;;;;;;2.00;1.80;;;19.50;51.60;;;;;;5073846;28;20049;-78
2021/09/21 12:28:10;;;;;;;2.33;1.88;;;19.50;52.00;;;;;;5073984;28;20036;-78
2021/09/21 12:30:41;;;;;;;2.22;1.83;;;19.50;51.70;;;;;;5075249;28;20033;-78
2021/09/21 12:33:09;;;;;;;4.53;1.80;;;19.60;51.90;;;;;;5073897;28;20404;-78
2021/09/21 12:35:43;;;;;;;2.90;1.90;;;19.60;51.20;;;;;;5075024;28;20104;-78
2021/09/21 12:38:10;;;;;;;1.90;1.63;;;19.70;51.20;;;;;;5073712;28;20060;-79
2021/09/21 12:40:57;;;;;;;2.17;1.70;;;19.70;51.40;;;;;;5074210;28;20381;-77
2021/09/21 12:43:29;;;;;;;1.85;1.73;;;19.70;51.30;;;;;;5073588;28;20039;-79
2021/09/21 12:45:58;;;;;;;2.63;1.90;;;19.80;51.60;;;;;;5074966;28;20025;-79
2021/09/21 12:48:26;;;;;;;2.92;1.70;;;19.80;51.30;;;;;;5073460;28;20059;-78
2021/09/21 12:50:54;;;;;;;3.50;2.25;;;19.80;51.30;;;;;;5072459;28;20020;-80
2021/09/21 12:53:20;;;;;;;2.13;1.80;;;19.80;51.50;;;;;;5070967;28;20483;-79
2021/09/21 12:55:53;;;;;;;2.55;1.65;;;19.70;51.70;;;;;;5074690;28;20024;-79
2021/09/21 12:58:22;;;;;;;2.47;1.83;;;19.80;51.70;;;;;;5073473;28;20500;-78
2021/09/21 13:00:48;;;;;;;3.35;2.28;;;19.80;51.40;;;;;;5074748;28;20025;-78
2021/09/21 13:03:13;;;;;;;2.38;2.17;;;19.80;51.60;;;;;;5074636;28;20052;-78
2021/09/21 13:05:39;;;;;;;2.70;2.10;;;19.70;51.60;;;;;;5073284;28;20034;-79
2021/09/21 13:08:06;;;;;;;5.40;2.20;;;19.70;51.60;;;;;;5073062;28;20113;-78
2021/09/21 13:10:32;;;;;;;3.58;2.20;;;19.70;51.70;;;;;;5070310;28;20033;-79
2021/09/21 13:13:03;;;;;;;2.08;1.83;;;19.70;51.60;;;;;;5074056;28;20037;-79
2021/09/21 13:15:31;;;;;;;2.78;2.10;;;19.70;51.70;;;;;;5073183;28;20058;-78
2021/09/21 13:17:59;;;;;;;3.58;2.10;;;19.80;51.70;;;;;;5074370;28;20095;-78
2021/09/21 13:20:28;;;;;;;2.95;1.75;;;19.70;51.40;;;;;;5072957;28;20048;-79
2021/09/21 13:22:55;;;;;;;2.28;1.70;;;19.80;51.30;;;;;;5070135;28;20036;-77
2021/09/21 13:25:22;;;;;;;2.25;1.67;;;19.80;51.30;;;;;;5072690;28;20043;-76
2021/09/21 13:27:48;;;;;;;2.05;1.85;;;19.80;51.40;;;;;;5072651;28;20028;-77
2021/09/21 13:30:15;;;;;;;1.77;1.60;;;19.80;51.40;;;;;;5073029;28;20105;-77
2021/09/21 13:32:41;;;;;;;1.73;1.63;;;19.90;51.40;;;;;;5072782;28;20024;-76